Easington, United Kingdom
Current Conditions -  °F | °C
As of 10:50 AM on Tuesday 21 Oct 2014 (Local Time) from EGXS Reporting Station
Scattered Clouds Scattered Clouds  
Wind Chill: 52°   Ceiling: Unl
Heat Index: 52°   Visibility: 6mi
Dew Point: 43°   Wind: 24mph
Humidity: 71%   Direction: 270°W
Pressure: 29.44"   Gusts: 40mph
Location:  53.65°N, 0.13°E
Report Text: EGXS 210950Z AUTO 27021G35KT 9999 // FEW042/// SCT048/// 11/06 Q0997
Loading
Personal Weather Stations






























Interactive Weather Map
Tropical Storm Tracking
New forecast layout! Learn more

10-Day Weather Forecast

Advertisements
Track Severe Weather on mobile